Latest Weather Observations for Montague Island

IDN60901

Issued at 5:41 pm EST Sunday 20 August 2017 (issued every 10 minutes, with the page automatically refreshed every 10 minutes)

About weather observations | Map of Canberra area stations | Latest observations for Canberra area | Other Formats
Station Details ID: 069017 Name: MONTAGUE ISLAND LIGHTHOUSE Lat: -36.25 Lon: 150.23 Height: 52.0 m
Data from the previous 72 hours. | See also: Recent months at Montague Island
Date/Time
EST
Temp
°C
App
Temp
°C
Dew
Point
°C
Rel
Hum
%
Delta-T
°C
Wind Press
QNH
hPa
Press
MSL
hPa
Rain since
9am
mm
Dir  Spd
km/h
Gust
km/h
Spd
kts
Gust
kts
20/05:30pm 12.4 8.8 5.1 61 3.4 SE 13 19 7 10 1020.9 1020.9 0.0
20/05:00pm 12.6 8.7 5.3 61 3.4 SE 15 20 8 11 1020.8 1020.8 0.0
20/04:30pm 12.6 8.5 4.6 58 3.7 SE 15 19 8 10 1020.9 1020.9 0.0
20/04:00pm 12.8 8.4 5.0 59 3.6 SE 17 22 9 12 1020.7 1020.7 0.0
20/03:30pm 12.9 8.2 5.3 60 3.5 SE 19 22 10 12 1021.0 1021.0 0.0
20/03:00pm 13.1 8.3 4.8 57 3.8 SE 19 22 10 12 1021.1 1021.1 0.0
20/02:30pm 13.4 8.7 5.1 57 3.9 SE 19 24 10 13 1021.4 1021.4 0.0
20/02:00pm 13.4 8.9 4.0 53 4.3 SSE 17 22 9 12 1021.7 1021.7 0.0
20/01:30pm 13.9 9.9 4.8 54 4.2 S 15 20 8 11 1022.2 1022.2 0.0
20/01:00pm 14.2 9.9 3.4 48 4.9 SSW 15 19 8 10 1022.5 1022.5 0.0
20/12:30pm 13.9 9.2 3.4 49 4.7 SSW 17 22 9 12 1022.8 1022.8 0.0
20/12:00pm 13.5 8.3 2.4 47 4.9 SSW 19 24 10 13 1022.9 1022.9 0.0
20/11:30am 13.4 8.1 3.2 50 4.6 SSW 20 28 11 15 1023.4 1023.4 0.0
20/11:00am 13.0 7.8 3.4 52 4.3 SSW 20 28 11 15 1023.7 1023.7 0.0
20/10:30am 12.7 7.4 2.8 51 4.4 SW 20 28 11 15 1023.8 1023.8 0.0
20/10:00am 12.5 7.1 2.7 51 4.3 SW 20 26 11 14 1024.1 1024.1 0.0
20/09:30am 12.0 5.9 2.5 52 4.1 SW 24 30 13 16 1024.3 1024.3 0.0
20/09:00am 11.6 5.1 2.4 53 4.0 SW 26 32 14 17 1024.2 1024.2 0.0
20/08:30am 11.0 4.4 2.1 54 3.8 SW 26 33 14 18 1024.3 1024.3 0.0
20/08:00am 10.6 3.7 2.4 57 3.5 SW 28 35 15 19 1024.0 1024.0 0.0
20/07:30am 10.0 3.5 2.4 59 3.2 SW 26 35 14 19 1023.8 1023.8 0.0
20/07:00am 9.4 2.9 2.7 63 2.8 SW 26 32 14 17 1023.5 1023.5 0.0
20/06:30am 9.1 2.5 2.2 62 2.9 SW 26 32 14 17 1023.1 1023.1 0.0
20/06:00am 9.0 2.0 1.9 61 2.9 SW 28 35 15 19 1022.9 1022.9 0.0
20/05:30am 9.0 1.6 2.1 62 2.9 SW 30 37 16 20 1022.7 1022.7 0.0
20/05:00am 8.9 1.9 1.8 61 2.9 WSW 28 35 15 19 1022.7 1022.7 0.0
20/04:30am 9.0 2.0 1.9 61 3.0 WSW 28 37 15 20 1022.6 1022.6 0.0
20/04:00am 9.0 2.4 1.9 61 2.9 WSW 26 32 14 17 1022.5 1022.5 0.0
20/03:30am 8.8 1.8 1.9 62 2.9 SW 28 33 15 18 1022.5 1022.5 0.0
20/03:00am 8.7 1.3 1.8 62 2.8 SW 30 35 16 19 1022.4 1022.4 0.0
20/02:30am 8.9 2.0 2.7 65 2.6 SW 28 35 15 19 1022.3 1022.3 0.0
20/02:00am 8.8 1.4 1.9 62 2.9 SW 30 35 16 19 1022.3 1022.3 0.0
20/01:30am 9.0 1.3 2.1 62 2.9 SW 32 39 17 21 1022.3 1022.3 0.0
20/01:00am 9.0 1.2 1.7 60 3.0 SW 32 39 17 21 1022.3 1022.3 0.0
20/12:30am 9.2 1.8 1.9 60 3.0 SW 30 39 16 21 1022.4 1022.4 0.0
20/12:00am 9.1 1.6 1.0 57 3.3 WSW 30 35 16 19 1022.5 1022.5 0.0
 
Date/Time
EST
Temp
°C
App
Temp
°C
Dew
Point
°C
Rel
Hum
%
Delta-T
°C
Wind Press
QNH
hPa
Press
MSL
hPa
Rain since
9am
mm
Dir  Spd
km/h
Gust
km/h
Spd
kts
Gust
kts
19/11:30pm 9.2 1.7 1.4 58 3.2 WSW 30 37 16 20 1022.5 1022.5 0.0
19/11:00pm 9.1 2.0 1.5 59 3.1 WSW 28 33 15 18 1022.8 1022.8 0.0
19/10:30pm 9.1 1.9 0.8 56 3.4 WSW 28 35 15 19 1022.8 1022.8 0.0
19/10:00pm 9.2 1.7 0.9 56 3.4 WSW 30 35 16 19 1022.8 1022.8 0.0
19/09:30pm 9.3 1.6 0.2 53 3.7 WSW 30 37 16 20 1022.8 1022.8 0.0
19/09:00pm 9.7 0.7 0.1 51 3.8 SW 37 46 20 25 1022.7 1022.7 0.0
19/08:30pm 9.9 1.0 0.5 52 3.8 SW 37 46 20 25 1022.6 1022.6 0.0
19/08:00pm 10.1 0.3 -0.1 49 4.1 SW 41 50 22 27 1022.1 1022.1 0.0
19/07:30pm 10.4 1.4 0.4 50 4.1 SW 37 46 20 25 1021.9 1021.9 0.0
19/07:00pm 10.7 2.5 0.2 48 4.3 SW 33 43 18 23 1021.8 1021.8 0.0
19/06:30pm 11.1 2.5 0.5 48 4.4 SW 35 44 19 24 1021.4 1021.4 0.0
19/06:00pm 11.2 3.3 0.9 49 4.3 SW 32 43 17 23 1021.1 1021.1 0.0
19/05:30pm 11.5 3.7 1.7 51 4.2 SW 32 39 17 21 1020.7 1020.7 0.0
19/05:00pm 11.3 4.0 4.7 64 3.0 SSW 32 43 17 23 1020.4 1020.4 0.0
19/04:30pm 11.4 4.5 4.8 64 3.0 SSW 30 35 16 19 1020.3 1020.3 0.0
19/04:00pm 11.2 4.4 4.9 65 2.9 SSW 30 39 16 21 1019.9 1019.9 0.0
19/03:30pm 11.7 4.7 5.8 67 2.8 S 32 37 17 20 1019.5 1019.5 0.0
19/03:00pm 11.5 3.8 5.2 65 2.9 S 35 43 19 23 1019.2 1019.2 0.0
19/02:30pm 12.3 4.4 4.3 58 3.6 SSW 35 46 19 25 1018.8 1018.8 0.0
19/02:00pm 12.1 3.8 4.3 59 3.5 SSW 37 48 20 26 1018.3 1018.3 0.0
19/01:30pm 12.1 4.2 4.1 58 3.6 SSW 35 44 19 24 1018.2 1018.2 0.0
19/01:00pm 12.3 5.1 6.1 66 2.9 SSW 33 41 18 22 1018.3 1018.3 0.0
19/12:30pm 11.8 3.5 4.3 60 3.4 SSW 37 46 20 25 1018.2 1018.2 0.0
19/12:00pm 12.3 3.3 2.5 51 4.3 SW 39 48 21 26 1018.1 1018.1 0.0
19/11:30am 12.6 4.5 3.0 52 4.2 SSW 35 44 19 24 1018.3 1018.3 0.0
19/11:00am 11.8 2.7 2.0 51 4.2 SW 39 48 21 26 1018.1 1018.1 0.0
19/10:30am 12.0 4.4 3.0 54 4.0 SW 32 46 17 25 1018.1 1018.1 0.0
19/10:00am 11.2 1.7 1.7 52 4.0 SW 41 52 22 28 1017.9 1017.9 0.0
19/09:30am 11.4 3.3 3.4 58 3.5 SW 35 50 19 27 1017.7 1017.7 0.0
19/09:00am 10.4 1.4 2.3 57 3.4 SW 39 54 21 29 1017.2 1017.2 0.0
19/08:30am 10.3 2.0 2.4 58 3.4 SW 35 44 19 24 1017.0 1017.0 0.0
19/08:00am 9.9 2.1 1.8 57 3.4 SW 32 39 17 21 1016.7 1016.7 0.0
19/07:30am 9.6 1.8 1.5 57 3.4 SW 32 39 17 21 1016.2 1016.2 0.0
19/07:00am 9.5 2.6 2.6 62 2.9 WSW 28 35 15 19 1015.8 1015.8 0.0
19/06:30am 9.3 1.2 1.0 56 3.4 SW 33 43 18 23 1015.1 1015.1 0.0
19/06:00am 9.4 1.3 1.3 57 3.3 SW 33 41 18 22 1014.7 1014.7 0.0
19/05:30am 9.6 0.7 1.0 55 3.5 SW 37 44 20 24 1014.2 1014.2 0.0
19/05:00am 9.6 0.6 0.0 51 3.8 SW 37 46 20 25 1014.2 1014.2 0.0
19/04:30am 9.9 0.9 0.3 51 3.9 SW 37 44 20 24 1013.5 1013.4 0.0
19/04:00am 9.9 -0.4 -0.9 47 4.3 SW 43 52 23 28 1012.8 1012.8 0.0
19/03:30am 10.2 1.8 1.8 56 3.5 SW 35 43 19 23 1012.7 1012.7 0.0
19/03:00am 10.0 2.2 1.6 56 3.5 SW 32 39 17 21 1012.3 1012.3 0.0
19/02:30am 10.3 2.4 2.2 57 3.4 SW 33 43 18 23 1012.3 1012.3 0.0
19/02:00am 10.5 0.6 1.9 55 3.6 SW 43 52 23 28 1012.3 1012.3 0.0
19/01:30am 10.4 -0.3 0.4 50 4.1 SW 46 59 25 32 1011.8 1011.8 0.0
19/01:26am 10.5 0.3 1.1 52 3.9 SW 44 57 24 31 1012.0 1012.0 0.0
19/01:00am 10.4 2.8 0.4 50 4.1 WSW 30 35 16 19 1011.9 1011.9 0.0
19/12:30am 10.5 5.2 1.6 54 3.7 WSW 19 30 10 16 1011.5 1011.5 0.0
19/12:00am 10.2 5.7 0.0 49 4.1 W 13 20 7 11 1011.3 1011.3 0.0
 
Date/Time
EST
Temp
°C
App
Temp
°C
Dew
Point
°C
Rel
Hum
%
Delta-T
°C
Wind Press
QNH
hPa
Press
MSL
hPa
Rain since
9am
mm
Dir  Spd
km/h
Gust
km/h
Spd
kts
Gust
kts
18/11:30pm 10.7 5.3 1.0 51 4.0 WSW 19 30 10 16 1011.5 1011.5 0.0
18/11:00pm 10.7 5.1 1.3 52 3.9 SW 20 26 11 14 1011.3 1011.3 0.0
18/10:30pm 10.9 5.1 2.2 55 3.7 WSW 22 30 12 16 1011.1 1011.1 0.0
18/10:00pm 11.3 3.7 2.6 55 3.8 WSW 32 41 17 22 1011.0 1011.0 0.0
18/09:30pm 11.2 5.0 2.0 53 3.9 SW 24 35 13 19 1010.7 1010.7 0.0
18/09:00pm 11.0 5.6 1.0 50 4.2 WSW 19 28 10 15 1010.8 1010.8 0.0
18/08:30pm 11.1 5.2 1.4 51 4.1 WSW 22 33 12 18 1010.3 1010.3 0.0
18/08:00pm 11.5 3.7 1.7 51 4.2 WSW 32 43 17 23 1009.8 1009.8 0.0
18/07:30pm 11.9 4.4 1.5 49 4.4 SW 30 39 16 21 1009.8 1009.8 0.0
18/07:00pm 12.4 3.2 3.4 54 4.0 SW 41 48 22 26 1008.9 1008.9 0.0
18/06:30pm 12.7 5.2 3.4 53 4.2 SW 32 43 17 23 1008.0 1008.0 0.0
18/06:00pm 13.1 6.3 2.9 50 4.5 SW 28 35 15 19 1007.3 1007.3 0.0
18/05:30pm 13.8 7.5 1.8 44 5.2 SW 24 32 13 17 1006.8 1006.8 0.0
18/05:00pm 14.5 8.3 2.4 44 5.4 SW 24 33 13 18 1005.9 1005.9 0.0
18/04:30pm 14.9 9.4 1.8 41 5.8 SW 20 28 11 15 1005.3 1005.3 0.0
18/04:00pm 15.0 8.9 2.5 43 5.6 SW 24 28 13 15 1004.7 1004.7 0.0
18/03:30pm 15.6 7.1 0.6 36 6.5 SW 35 50 19 27 1004.1 1004.1 0.0
18/03:23pm 16.0 7.8 -0.7 32 7.0 WSW 32 50 17 27 1003.9 1003.9 0.0
18/03:00pm 16.2 8.4 -0.9 31 7.2 WSW 30 43 16 23 1003.9 1003.9 0.0
18/02:30pm 16.4 7.3 -0.3 32 7.1 WSW 37 43 20 23 1003.3 1003.3 0.0
18/02:00pm 16.3 10.0 -0.8 31 7.2 WSW 22 33 12 18 1003.4 1003.4 0.0
18/01:30pm 16.0 7.4 -2.5 28 7.5 WSW 33 52 18 28 1003.1 1003.1 0.0
18/01:25pm 15.7 7.8 -1.8 30 7.2 WSW 30 52 16 28 1003.0 1003.0 0.0
18/01:00pm 15.4 7.0 -2.1 30 7.1 WSW 32 39 17 21 1003.1 1003.1 0.0
18/12:30pm 15.4 7.1 -1.6 31 7.0 WSW 32 44 17 24 1003.2 1003.2 0.0
18/12:00pm 15.3 8.5 -1.7 31 7.0 WSW 24 35 13 19 1003.5 1003.5 0.0
18/11:30am 16.0 9.3 -1.1 31 7.1 W 24 37 13 20 1003.6 1003.6 0.0
18/11:00am 17.1 12.6 -0.1 31 7.4 W 13 24 7 13 1003.8 1003.8 0.0
18/10:30am 16.2 10.7 0.7 35 6.7 W 19 26 10 14 1004.0 1004.0 0.0
18/10:00am 15.1 8.7 -1.9 31 6.9 W 22 32 12 17 1003.9 1003.9 0.0
18/09:30am 14.6 8.3 -1.1 34 6.5 W 22 32 12 17 1003.8 1003.8 0.0
18/09:00am 14.1 7.8 -1.1 35 6.3 WSW 22 28 12 15 1003.8 1003.8 0.0
18/08:30am 13.3 9.4 -1.4 36 5.9 WSW 9 19 5 10 1004.0 1004.0 0.0
18/08:00am 13.0 8.1 -0.3 40 5.5 W 15 22 8 12 1003.7 1003.7 0.0
18/07:30am 12.2 6.5 0.6 45 4.8 W 20 24 11 13 1003.2 1003.2 0.0
18/07:00am 11.7 4.9 0.8 47 4.6 W 26 33 14 18 1002.7 1002.7 0.0
18/06:30am 11.6 2.7 0.7 47 4.5 W 37 46 20 25 1001.8 1001.8 0.0
18/06:00am 11.7 3.2 1.1 48 4.5 W 35 48 19 26 1001.6 1001.6 0.0
18/05:30am 11.8 3.7 1.2 48 4.5 W 33 43 18 23 1001.6 1001.6 0.0
18/05:00am 12.0 3.6 1.6 49 4.5 W 35 44 19 24 1001.3 1001.3 0.0
18/04:30am 11.9 3.4 0.7 46 4.7 W 35 46 19 25 1001.2 1001.2 0.0
18/04:00am 11.9 4.9 2.1 51 4.2 W 28 35 15 19 1001.3 1001.3 0.0
18/03:30am 11.8 4.9 2.5 53 4.0 W 28 39 15 21 1001.6 1001.6 0.0
18/03:00am 11.8 5.7 2.8 54 4.0 W 24 35 13 19 1001.7 1001.7 0.0
18/02:30am 12.3 5.2 3.3 54 4.0 W 30 43 16 23 1001.7 1001.7 0.0
18/02:00am 12.7 6.3 3.4 53 4.2 W 26 43 14 23 1001.7 1001.7 0.0
18/01:30am 12.8 6.3 2.6 50 4.5 W 26 41 14 22 1001.8 1001.8 0.0
18/01:00am 13.1 7.5 3.2 51 4.4 WNW 22 33 12 18 1002.1 1002.1 0.0
18/12:30am 13.5 8.0 3.8 52 4.4 WNW 22 32 12 17 1002.6 1002.6 0.0
18/12:00am 13.3 8.5 4.5 55 4.1 WNW 19 28 10 15 1003.0 1003.0 0.0
 
Date/Time
EST
Temp
°C
App
Temp
°C
Dew
Point
°C
Rel
Hum
%
Delta-T
°C
Wind Press
QNH
hPa
Press
MSL
hPa
Rain since
9am
mm
Dir  Spd
km/h
Gust
km/h
Spd
kts
Gust
kts
17/11:30pm 13.4 8.9 4.3 54 4.2 WNW 17 22 9 12 1003.2 1003.2 0.0
17/11:00pm 12.8 10.2 4.3 56 3.9 NW 7 13 4 7 1003.4 1003.4 0.0
17/10:30pm 12.7 10.1 4.2 56 3.9 W 7 11 4 6 1003.7 1003.7 0.0
17/10:00pm 13.3 9.6 4.2 54 4.2 W 13 22 7 12 1004.0 1004.0 0.0
17/09:30pm 13.6 9.1 4.2 53 4.3 W 17 22 9 12 1004.2 1004.2 0.0
17/09:00pm 13.7 10.0 4.6 54 4.2 WNW 13 20 7 11 1004.2 1004.2 0.0
17/08:30pm 13.6 9.2 4.7 55 4.1 W 17 24 9 13 1003.8 1003.8 0.0
17/08:00pm 13.5 9.6 5.4 58 3.8 WNW 15 20 8 11 1003.5 1003.5 0.0
17/07:30pm 13.7 8.1 5.6 58 3.8 WNW 24 32 13 17 1003.4 1003.4 0.0
17/07:00pm 14.1 8.2 5.7 57 4.0 W 26 32 14 17 1003.4 1003.4 0.0
17/06:30pm 14.8 6.8 5.6 54 4.4 W 37 44 20 24 1002.5 1002.5 0.0
17/06:16pm 15.6 7.9 5.5 51 4.8 W 35 50 19 27 1001.9 1001.9 0.0
17/06:00pm 16.3 9.9 3.4 42 6.0 W 26 32 14 17 1001.8 1001.8 0.0

Latest Capital City Observations: Canberra | Sydney | Melbourne | Brisbane | Adelaide | Perth | Hobart | Darwin

Other Formats:

Comma delimited format used in spreadsheet applications
http://www.bom.gov.au/fwo/IDN60903/IDN60903.94939.axf

JavaScript Object Notation format (JSON) in row-major order
http://www.bom.gov.au/fwo/IDN60903/IDN60903.94939.json